sensor_id;sensor_type;location;lat;lon;timestamp;temperature;humidity
20162;DHT22;51382;53.180;15.414;2023-06-14T00:05:49;14.30;93.70
20162;DHT22;51382;53.180;15.414;2023-06-14T00:21:01;14.20;93.90
20162;DHT22;51382;53.180;15.414;2023-06-14T00:36:12;13.90;94.60
20162;DHT22;51382;53.180;15.414;2023-06-14T00:51:24;13.60;95.10
20162;DHT22;51382;53.180;15.414;2023-06-14T01:06:38;13.20;96.30
20162;DHT22;51382;53.180;15.414;2023-06-14T01:21:55;13.00;97.60
20162;DHT22;51382;53.180;15.414;2023-06-14T01:37:06;12.60;98.00
20162;DHT22;51382;53.180;15.414;2023-06-14T01:52:19;12.80;98.40
20162;DHT22;51382;53.180;15.414;2023-06-14T02:07:32;12.40;99.90
20162;DHT22;51382;53.180;15.414;2023-06-14T02:22:43;12.30;99.60
20162;DHT22;51382;53.180;15.414;2023-06-14T02:37:55;12.90;99.20
20162;DHT22;51382;53.180;15.414;2023-06-14T02:53:06;12.90;99.60
20162;DHT22;51382;53.180;15.414;2023-06-14T03:08:18;13.10;98.70
20162;DHT22;51382;53.180;15.414;2023-06-14T03:23:36;13.70;96.50
20162;DHT22;51382;53.180;15.414;2023-06-14T03:38:48;13.80;95.40
20162;DHT22;51382;53.180;15.414;2023-06-14T03:54:00;13.70;95.50
20162;DHT22;51382;53.180;15.414;2023-06-14T04:09:12;14.20;95.10
20162;DHT22;51382;53.180;15.414;2023-06-14T04:24:24;14.40;95.40
20162;DHT22;51382;53.180;15.414;2023-06-14T04:39:40;14.60;94.90
20162;DHT22;51382;53.180;15.414;2023-06-14T04:54:52;14.70;96.10
20162;DHT22;51382;53.180;15.414;2023-06-14T05:10:04;14.60;95.00
20162;DHT22;51382;53.180;15.414;2023-06-14T05:25:18;14.50;95.30
20162;DHT22;51382;53.180;15.414;2023-06-14T05:40:29;14.80;95.20
20162;DHT22;51382;53.180;15.414;2023-06-14T05:55:41;14.80;95.90
20162;DHT22;51382;53.180;15.414;2023-06-14T06:10:52;15.40;92.10
20162;DHT22;51382;53.180;15.414;2023-06-14T06:26:04;15.40;94.10
20162;DHT22;51382;53.180;15.414;2023-06-14T06:41:15;15.40;94.60
20162;DHT22;51382;53.180;15.414;2023-06-14T06:56:26;15.60;92.40
20162;DHT22;51382;53.180;15.414;2023-06-14T07:11:39;16.20;91.40
20162;DHT22;51382;53.180;15.414;2023-06-14T07:26:51;17.00;87.70
20162;DHT22;51382;53.180;15.414;2023-06-14T07:42:04;17.80;85.20
20162;DHT22;51382;53.180;15.414;2023-06-14T07:57:16;18.50;80.00
20162;DHT22;51382;53.180;15.414;2023-06-14T08:12:28;19.40;74.40
20162;DHT22;51382;53.180;15.414;2023-06-14T08:27:39;20.90;69.90
20162;DHT22;51382;53.180;15.414;2023-06-14T08:42:54;21.10;68.30
20162;DHT22;51382;53.180;15.414;2023-06-14T08:58:06;22.20;63.00
20162;DHT22;51382;53.180;15.414;2023-06-14T09:13:17;22.10;60.60
20162;DHT22;51382;53.180;15.414;2023-06-14T09:28:31;23.10;60.50
20162;DHT22;51382;53.180;15.414;2023-06-14T09:43:43;23.60;57.70
20162;DHT22;51382;53.180;15.414;2023-06-14T10:00:18;22.70;59.00
20162;DHT22;51382;53.180;15.414;2023-06-14T10:15:32;23.70;55.70
20162;DHT22;51382;53.180;15.414;2023-06-14T10:31:06;24.30;56.10
20162;DHT22;51382;53.180;15.414;2023-06-14T10:46:18;24.60;53.80
20162;DHT22;51382;53.180;15.414;2023-06-14T11:01:37;24.50;54.60
20162;DHT22;51382;53.180;15.414;2023-06-14T11:33:10;22.60;57.00
20162;DHT22;51382;53.180;15.414;2023-06-14T11:48:36;23.10;56.20
20162;DHT22;51382;53.180;15.414;2023-06-14T12:03:48;24.30;54.30
20162;DHT22;51382;53.180;15.414;2023-06-14T12:19:07;25.40;49.90
20162;DHT22;51382;53.180;15.414;2023-06-14T12:34:21;24.10;49.50
20162;DHT22;51382;53.180;15.414;2023-06-14T12:49:32;22.30;53.10
20162;DHT22;51382;53.180;15.414;2023-06-14T13:04:43;21.80;55.40
20162;DHT22;51382;53.180;15.414;2023-06-14T13:19:55;21.70;57.60
20162;DHT22;51382;53.180;15.414;2023-06-14T13:35:06;21.80;58.30
20162;DHT22;51382;53.180;15.414;2023-06-14T13:50:18;22.40;57.90
20162;DHT22;51382;53.180;15.414;2023-06-14T14:05:29;22.90;58.00
20162;DHT22;51382;53.180;15.414;2023-06-14T14:20:41;22.90;58.00
20162;DHT22;51382;53.180;15.414;2023-06-14T14:35:52;22.70;57.50
20162;DHT22;51382;53.180;15.414;2023-06-14T14:51:03;22.20;62.50
20162;DHT22;51382;53.180;15.414;2023-06-14T15:06:14;21.90;63.40
20162;DHT22;51382;53.180;15.414;2023-06-14T15:21:27;22.10;61.70
20162;DHT22;51382;53.180;15.414;2023-06-14T15:36:38;21.80;61.00
20162;DHT22;51382;53.180;15.414;2023-06-14T15:51:49;21.20;60.30
20162;DHT22;51382;53.180;15.414;2023-06-14T16:07:00;21.00;60.50
20162;DHT22;51382;53.180;15.414;2023-06-14T16:22:14;20.90;59.70
20162;DHT22;51382;53.180;15.414;2023-06-14T16:37:25;20.90;59.90
20162;DHT22;51382;53.180;15.414;2023-06-14T16:52:37;20.60;60.00
20162;DHT22;51382;53.180;15.414;2023-06-14T17:07:49;20.50;61.30
20162;DHT22;51382;53.180;15.414;2023-06-14T17:23:00;20.50;61.20
20162;DHT22;51382;53.180;15.414;2023-06-14T17:38:13;20.20;62.10
20162;DHT22;51382;53.180;15.414;2023-06-14T17:53:25;19.70;64.00
20162;DHT22;51382;53.180;15.414;2023-06-14T18:08:36;19.50;65.80
20162;DHT22;51382;53.180;15.414;2023-06-14T18:23:47;19.40;69.50
20162;DHT22;51382;53.180;15.414;2023-06-14T18:39:03;19.30;68.00
20162;DHT22;51382;53.180;15.414;2023-06-14T18:54:14;19.10;68.40
20162;DHT22;51382;53.180;15.414;2023-06-14T19:09:26;19.00;73.30
20162;DHT22;51382;53.180;15.414;2023-06-14T19:24:38;17.30;81.70
20162;DHT22;51382;53.180;15.414;2023-06-14T19:39:52;17.00;83.30
20162;DHT22;51382;53.180;15.414;2023-06-14T19:55:06;16.40;86.40
20162;DHT22;51382;53.180;15.414;2023-06-14T20:10:18;16.10;89.90
20162;DHT22;51382;53.180;15.414;2023-06-14T20:25:30;15.90;90.80
20162;DHT22;51382;53.180;15.414;2023-06-14T20:40:41;15.30;93.00
20162;DHT22;51382;53.180;15.414;2023-06-14T20:55:55;15.50;93.10
20162;DHT22;51382;53.180;15.414;2023-06-14T21:11:06;15.80;91.30
20162;DHT22;51382;53.180;15.414;2023-06-14T21:26:18;15.60;92.20
20162;DHT22;51382;53.180;15.414;2023-06-14T21:41:31;15.00;96.20
20162;DHT22;51382;53.180;15.414;2023-06-14T21:56:45;14.80;97.10
20162;DHT22;51382;53.180;15.414;2023-06-14T22:11:58;14.50;97.60
20162;DHT22;51382;53.180;15.414;2023-06-14T22:27:09;14.40;97.90
20162;DHT22;51382;53.180;15.414;2023-06-14T22:42:21;14.30;98.40
20162;DHT22;51382;53.180;15.414;2023-06-14T22:57:34;14.10;99.90
20162;DHT22;51382;53.180;15.414;2023-06-14T23:12:46;14.00;99.90
20162;DHT22;51382;53.180;15.414;2023-06-14T23:27:57;14.00;99.90
20162;DHT22;51382;53.180;15.414;2023-06-14T23:43:11;14.00;99.90
20162;DHT22;51382;53.180;15.414;2023-06-14T23:58:22;13.90;99.90
